Etusivu
METAR-TAF:

METAR-TAF

Lentoasemat :

Quinhagak, Alaska, Yhdysvallat

Leveyspiiri: 59-45-18N, Pituuspiiri: 161-50-43W, korkeus merenpinnasta: 13 m

Tämänhetkinen sää

Tämä raportti tehtiin 28 minuuttia sitten, kello 23.56 UTC
Tuuli 12 kn idästä/kaakosta
Lämpötila 13°C
Kosteus 67%
Ilmanpaine 1013 hPa
Näkyvyys: 16.1 km
Muutamia pilviä 3200 ft:n korkeudessa
Pilvistä 4500 ft:n korkeudessa

METAR: PAQH 182356Z AUTO 12012KT 10SM FEW032 OVC045 13/07 A2992 RMK AO2 SLP132 T01280072 10139 20100 55001

Aika: 16:24 (00:24 UTC)


TAF: puuttuu

Säähavainnot ja -ennusteet yli 4000 lentoasemalta (METAR- ja TAF-raportit).

Käytössä olevat sääasemat on merkitty karttaan keltaisilla ja punaisilla pisteillä.

Aseta hiiri pisteen päälle nähdäksesi sääaseman nimen.

Klikkaa sitten nähdäksesi säähavainnot ja -ennusteet.

Kartan vaihtaminen: klikkaa mustalla rastilla varustettuja vihreitä pisteitä, niin voit zoomata sisään; viivalla varustettua vihreää pistettä, niin voit zoomata ulos tai vihreitä nuolia, niin pääset viereisille kartoille.


METAR-TAF: